Terminal Aerodrome Forecast
Issued by NWS

Home | Current Version | Previous Version | Text Only | Print | Product List | Glossary On
Versions: 1 2 3 4 5 6 7 8 9 10 11 12 13 14 15 16 17 18 19 20 21
000
FTUS46 KSEW 212300
TAFPAE
TAF
KPAE 212320Z 2200/2224 17012G20KT P6SM BKN030 OVC070
     FM220300 15016G25KT P6SM -RA OVC030
     FM220800 17018G28KT P6SM -RA OVC025
     FM221800 18013G22KT P6SM -SHRA BKN025 OVC040=

USA.gov is the U.S. government's official web portal to all federal, state and local government web resources and services.